Time;durP1;ratioP1;P1;durP2;ratioP2;P2;SDS_P1;SDS_P2;PMS_P1;PMS_P2;Temp;Humidity;BMP_temperature;BMP_pressure;BME280_temperature;BME280_humidity;BME280_pressure;Samples;Min_cycle;Max_cycle;Signal;HPM_P1;HPM_P2
2023/05/06 00:00:56;;;;;;;4.85;3.80;;;14.40;99.90;;;;;;4175345;28;20148;-68
2023/05/06 00:02:59;;;;;;;3.97;3.20;;;14.40;99.90;;;;;;4178335;28;20033;-68
2023/05/06 00:04:59;;;;;;;3.88;2.97;;;14.50;99.90;;;;;;4178414;28;20136;-67
2023/05/06 00:07:00;;;;;;;3.53;2.80;;;14.50;99.90;;;;;;4177193;28;20036;-68
2023/05/06 00:09:01;;;;;;;3.72;2.85;;;14.50;99.90;;;;;;4178133;28;20476;-68
2023/05/06 00:11:01;;;;;;;4.93;3.05;;;14.50;99.90;;;;;;4177194;28;20123;-68
2023/05/06 00:13:02;;;;;;;2.97;2.55;;;14.50;99.90;;;;;;4178330;28;20044;-68
2023/05/06 00:15:04;;;;;;;2.78;2.20;;;14.40;99.90;;;;;;4177010;28;20052;-68
2023/05/06 00:17:04;;;;;;;2.05;1.52;;;14.40;99.90;;;;;;4175306;28;20041;-68
2023/05/06 00:19:05;;;;;;;3.47;2.10;;;14.40;99.90;;;;;;4177827;28;20128;-68
2023/05/06 00:21:06;;;;;;;2.70;2.20;;;14.40;99.90;;;;;;4175164;28;20037;-67
2023/05/06 00:23:07;;;;;;;3.58;2.85;;;14.40;99.90;;;;;;4179002;28;20029;-68
2023/05/06 00:25:07;;;;;;;3.38;2.58;;;14.40;99.90;;;;;;4177934;28;20032;-68
2023/05/06 00:27:08;;;;;;;4.07;3.13;;;14.40;99.90;;;;;;4175589;28;20549;-68
2023/05/06 00:29:09;;;;;;;6.50;3.47;;;14.40;99.90;;;;;;4174448;28;20059;-68
2023/05/06 00:31:09;;;;;;;4.15;3.00;;;14.30;99.90;;;;;;4176232;28;20036;-68
2023/05/06 00:33:10;;;;;;;3.30;2.47;;;14.40;99.90;;;;;;4178013;28;20080;-68
2023/05/06 00:35:11;;;;;;;3.58;2.92;;;14.40;99.90;;;;;;4177921;28;20041;-68
2023/05/06 00:37:11;;;;;;;4.60;3.30;;;14.40;99.90;;;;;;4178222;28;20128;-68
2023/05/06 00:39:12;;;;;;;4.30;3.50;;;14.30;99.90;;;;;;4177521;28;20395;-68
2023/05/06 00:41:13;;;;;;;5.47;4.10;;;14.10;99.90;;;;;;4176712;28;20404;-68
2023/05/06 00:43:13;;;;;;;4.25;3.13;;;13.90;99.90;;;;;;4177537;28;20048;-68
2023/05/06 00:45:14;;;;;;;4.40;3.20;;;13.80;99.90;;;;;;4174114;28;20427;-68
2023/05/06 00:47:16;;;;;;;5.57;3.70;;;13.80;99.90;;;;;;4177311;28;20120;-68
2023/05/06 00:49:16;;;;;;;4.57;3.30;;;13.80;99.90;;;;;;4177581;28;20048;-68
2023/05/06 00:51:17;;;;;;;4.40;3.38;;;13.70;99.90;;;;;;4177221;28;20080;-69
2023/05/06 00:53:20;;;;;;;7.32;3.42;;;13.80;99.90;;;;;;4178483;28;20045;-68
2023/05/06 00:55:21;;;;;;;3.63;2.92;;;13.80;99.90;;;;;;4177295;28;20090;-68
2023/05/06 00:57:22;;;;;;;5.28;3.75;;;13.80;99.90;;;;;;4176096;28;20124;-68
2023/05/06 00:59:22;;;;;;;3.58;3.10;;;13.80;99.90;;;;;;4173661;28;20053;-68
2023/05/06 01:01:23;;;;;;;3.10;1.95;;;13.90;99.90;;;;;;4176479;28;20076;-68
2023/05/06 01:03:24;;;;;;;2.25;1.90;;;13.80;99.90;;;;;;4178180;28;20064;-68
2023/05/06 01:05:31;;;;;;;1.50;1.38;;;13.90;99.90;;;;;;4177467;28;20052;-68
2023/05/06 01:07:43;;;;;;;1.67;1.42;;;13.80;99.90;;;;;;4178534;28;20048;-68
2023/05/06 01:10:18;;;;;;;1.98;1.75;;;13.80;99.90;;;;;;4172863;28;20109;-68
2023/05/06 01:12:31;;;;;;;2.80;2.45;;;13.80;99.90;;;;;;4173280;28;20512;-68
2023/05/06 01:14:44;;;;;;;3.65;2.70;;;13.80;99.90;;;;;;4176272;28;20062;-67
2023/05/06 01:16:49;;;;;;;4.05;3.17;;;13.80;99.90;;;;;;4173200;28;20029;-68
2023/05/06 01:18:52;;;;;;;3.92;2.92;;;13.80;99.90;;;;;;4172099;28;20032;-68
2023/05/06 01:20:54;;;;;;;4.05;3.15;;;13.80;99.90;;;;;;4177251;28;20037;-68
2023/05/06 01:22:55;;;;;;;4.97;3.65;;;13.80;99.90;;;;;;4174910;28;20120;-68
2023/05/06 01:24:56;;;;;;;4.32;3.20;;;13.80;99.90;;;;;;4177876;28;20025;-68
2023/05/06 01:26:56;;;;;;;4.68;3.40;;;13.90;99.90;;;;;;4177358;28;20029;-68
2023/05/06 01:28:57;;;;;;;3.67;2.97;;;13.90;99.90;;;;;;4177235;28;20098;-68
2023/05/06 01:31:07;;;;;;;3.97;3.00;;;13.80;99.90;;;;;;4174124;28;20029;-68
2023/05/06 01:33:32;;;;;;;3.50;2.72;;;13.80;99.90;;;;;;4170057;28;20041;-68
2023/05/06 01:36:17;;;;;;;3.00;2.53;;;13.80;99.90;;;;;;4176275;28;20032;-67
2023/05/06 01:38:56;;;;;;;3.13;2.75;;;13.80;99.90;;;;;;4169461;28;20044;-68
2023/05/06 01:40:59;;;;;;;4.05;3.03;;;13.80;99.90;;;;;;4175629;28;20036;-67
2023/05/06 01:43:03;;;;;;;7.18;3.53;;;13.70;99.90;;;;;;4175899;28;20043;-67
2023/05/06 01:45:05;;;;;;;6.93;3.60;;;13.70;99.90;;;;;;4173737;28;20079;-68
2023/05/06 01:47:08;;;;;;;4.72;3.38;;;13.70;99.90;;;;;;4175270;28;20021;-68
2023/05/06 01:49:10;;;;;;;3.95;2.83;;;13.70;99.90;;;;;;4176914;28;20500;-68
2023/05/06 01:51:11;;;;;;;4.72;3.05;;;13.70;99.90;;;;;;4174892;28;20041;-68
2023/05/06 01:53:12;;;;;;;3.95;3.00;;;13.60;99.90;;;;;;4176628;28;20557;-68
2023/05/06 01:55:12;;;;;;;4.15;2.80;;;13.70;99.90;;;;;;4176204;28;20061;-68
2023/05/06 01:57:13;;;;;;;4.18;3.00;;;13.70;99.90;;;;;;4177670;28;20082;-68
2023/05/06 01:59:13;;;;;;;4.78;3.30;;;13.70;99.90;;;;;;4176766;28;20507;-68
2023/05/06 02:01:14;;;;;;;3.75;3.00;;;13.60;99.90;;;;;;4174265;28;20059;-68
2023/05/06 02:03:14;;;;;;;3.40;2.78;;;13.40;99.90;;;;;;4176491;28;20128;-67
2023/05/06 02:05:15;;;;;;;3.95;2.90;;;13.20;99.90;;;;;;4176321;28;20091;-68
2023/05/06 02:07:16;;;;;;;3.88;3.05;;;13.10;99.90;;;;;;4177365;28;20045;-67
2023/05/06 02:09:16;;;;;;;4.47;3.60;;;13.00;99.90;;;;;;4176913;28;20056;-67
2023/05/06 02:11:17;;;;;;;6.53;4.25;;;13.00;99.90;;;;;;4176373;28;20139;-68
2023/05/06 02:13:18;;;;;;;6.75;4.28;;;13.00;99.90;;;;;;4176261;28;20431;-69
2023/05/06 02:15:19;;;;;;;7.28;4.32;;;13.00;99.90;;;;;;4174200;28;20136;-68
2023/05/06 02:17:19;;;;;;;7.07;5.05;;;13.10;99.90;;;;;;4176596;28;20407;-68
2023/05/06 02:19:20;;;;;;;6.75;4.72;;;13.10;99.90;;;;;;4177040;28;20040;-68
2023/05/06 02:21:21;;;;;;;6.47;4.35;;;13.10;99.90;;;;;;4176372;28;20033;-67
2023/05/06 02:23:22;;;;;;;6.32;3.90;;;13.20;99.90;;;;;;4176484;28;20499;-68
2023/05/06 02:25:22;;;;;;;5.65;3.85;;;13.20;99.90;;;;;;4176444;28;20041;-68
2023/05/06 02:27:23;;;;;;;5.85;4.18;;;13.30;99.90;;;;;;4174033;28;20056;-67
2023/05/06 02:29:23;;;;;;;6.65;4.63;;;13.30;99.90;;;;;;4177165;28;20104;-68
2023/05/06 02:31:24;;;;;;;5.80;4.03;;;13.30;99.90;;;;;;4174600;28;20037;-67
2023/05/06 02:33:25;;;;;;;7.78;4.93;;;13.30;99.90;;;;;;4176123;28;20487;-68
2023/05/06 02:35:25;;;;;;;6.53;4.55;;;13.30;99.90;;;;;;4175917;28;20040;-67
2023/05/06 02:37:26;;;;;;;6.75;4.07;;;13.30;99.90;;;;;;4175390;28;20033;-68
2023/05/06 02:39:26;;;;;;;4.53;3.08;;;13.30;99.90;;;;;;4175557;28;20025;-67
2023/05/06 02:41:27;;;;;;;4.47;3.30;;;13.20;99.90;;;;;;4175684;28;20032;-67
2023/05/06 02:43:27;;;;;;;2.80;2.50;;;13.30;99.90;;;;;;4175673;28;20029;-67
2023/05/06 02:45:28;;;;;;;3.88;3.20;;;13.30;99.90;;;;;;4174104;28;20090;-67
2023/05/06 02:47:29;;;;;;;5.70;3.15;;;13.20;99.90;;;;;;4177062;28;20029;-68
2023/05/06 02:49:29;;;;;;;5.10;3.95;;;13.20;99.90;;;;;;4176450;28;20035;-67
2023/05/06 02:51:30;;;;;;;5.07;4.10;;;13.20;99.90;;;;;;4175619;28;20033;-67
2023/05/06 02:53:31;;;;;;;5.72;4.32;;;13.20;99.90;;;;;;4175358;28;20039;-67
2023/05/06 02:55:31;;;;;;;6.22;4.65;;;13.20;99.90;;;;;;4175538;28;20504;-67
2023/05/06 02:57:32;;;;;;;8.43;4.95;;;13.20;99.90;;;;;;4171246;28;20120;-68
2023/05/06 02:59:34;;;;;;;5.35;3.50;;;13.20;99.90;;;;;;4176711;28;20037;-68
2023/05/06 03:01:34;;;;;;;3.80;3.03;;;13.20;99.90;;;;;;4173943;28;20028;-68
2023/05/06 03:03:35;;;;;;;4.57;3.65;;;13.10;99.90;;;;;;4175988;28;20033;-68
2023/05/06 03:05:35;;;;;;;4.40;3.60;;;13.10;99.90;;;;;;4175571;28;20029;-67
2023/05/06 03:07:37;;;;;;;6.60;4.68;;;13.10;99.90;;;;;;4175241;28;20041;-69
2023/05/06 03:09:38;;;;;;;4.57;3.80;;;13.00;99.90;;;;;;4176666;28;20041;-68
2023/05/06 03:11:38;;;;;;;5.13;4.22;;;13.10;99.90;;;;;;4175046;28;20025;-68
2023/05/06 03:13:39;;;;;;;6.60;5.15;;;13.10;99.90;;;;;;4175974;28;20040;-68
2023/05/06 03:15:40;;;;;;;7.20;5.03;;;13.10;99.90;;;;;;4174089;28;20051;-68
2023/05/06 03:17:40;;;;;;;7.20;4.47;;;13.10;99.90;;;;;;4176442;28;20087;-68
2023/05/06 03:19:41;;;;;;;6.53;4.60;;;13.10;99.90;;;;;;4176618;28;20104;-68
2023/05/06 03:21:42;;;;;;;8.77;6.05;;;13.10;99.90;;;;;;4175157;28;20037;-68
2023/05/06 03:23:42;;;;;;;8.88;5.70;;;13.20;99.90;;;;;;4175449;28;20435;-68
2023/05/06 03:25:43;;;;;;;9.32;5.75;;;13.20;99.90;;;;;;4175747;28;20111;-67
2023/05/06 03:27:44;;;;;;;8.32;5.60;;;13.20;99.90;;;;;;4174540;28;20037;-68
2023/05/06 03:29:44;;;;;;;7.45;5.18;;;13.20;99.90;;;;;;4176344;28;20026;-68
2023/05/06 03:31:48;;;;;;;5.55;4.10;;;13.20;99.90;;;;;;4169854;28;20167;-68
2023/05/06 03:33:49;;;;;;;5.53;4.13;;;13.10;99.90;;;;;;4176117;28;20140;-67
2023/05/06 03:35:49;;;;;;;5.30;4.13;;;13.10;99.90;;;;;;4174877;28;20060;-68
2023/05/06 03:37:50;;;;;;;5.72;4.30;;;13.10;99.90;;;;;;4175648;28;20033;-67
2023/05/06 03:39:50;;;;;;;6.53;4.45;;;13.00;99.90;;;;;;4175994;28;20108;-67
2023/05/06 03:41:51;;;;;;;5.93;4.22;;;13.10;99.90;;;;;;4173217;28;20028;-68
2023/05/06 03:43:54;;;;;;;5.13;3.88;;;13.00;99.90;;;;;;4175737;28;20033;-68
2023/05/06 03:45:54;;;;;;;5.97;4.47;;;13.00;99.90;;;;;;4173566;28;20082;-68
2023/05/06 03:47:55;;;;;;;8.20;5.50;;;13.00;99.90;;;;;;4175757;28;20076;-67
2023/05/06 03:49:56;;;;;;;6.80;5.20;;;13.00;99.90;;;;;;4176577;28;20032;-68
2023/05/06 03:51:56;;;;;;;7.25;5.43;;;13.00;99.90;;;;;;4174212;28;20094;-67
2023/05/06 03:53:57;;;;;;;6.70;5.00;;;13.00;99.90;;;;;;4175733;28;20029;-68
2023/05/06 03:55:58;;;;;;;6.65;5.03;;;13.00;99.90;;;;;;4174438;28;20090;-67
2023/05/06 03:57:59;;;;;;;9.80;4.97;;;13.00;99.90;;;;;;4175245;28;20541;-67
2023/05/06 04:00:00;;;;;;;7.28;5.38;;;13.00;99.90;;;;;;4173026;28;20064;-67
2023/05/06 04:02:00;;;;;;;8.32;5.53;;;13.00;99.90;;;;;;4171154;28;20029;-67
2023/05/06 04:04:01;;;;;;;7.13;5.47;;;13.00;99.90;;;;;;4175557;28;20039;-67
2023/05/06 04:06:01;;;;;;;8.20;5.35;;;13.00;99.90;;;;;;4175018;28;20040;-67
2023/05/06 04:08:02;;;;;;;6.43;4.65;;;13.10;99.90;;;;;;4175723;28;20082;-67
2023/05/06 04:10:03;;;;;;;7.57;5.15;;;13.10;99.90;;;;;;4176131;28;20411;-68
2023/05/06 04:12:04;;;;;;;8.02;5.57;;;13.00;99.90;;;;;;4173556;28;20377;-67
2023/05/06 04:14:04;;;;;;;9.45;6.28;;;13.00;99.90;;;;;;4175693;28;20087;-67
2023/05/06 04:16:05;;;;;;;10.07;6.32;;;13.00;99.90;;;;;;4174181;28;20095;-67
2023/05/06 04:18:08;;;;;;;7.82;5.65;;;13.00;99.90;;;;;;4175261;28;20045;-67
2023/05/06 04:20:10;;;;;;;10.00;7.07;;;13.00;99.90;;;;;;4177866;28;20454;-67
2023/05/06 04:22:10;;;;;;;13.10;9.13;;;12.90;99.90;;;;;;4176875;28;20061;-68
2023/05/06 04:24:12;;;;;;;12.63;9.48;;;13.00;99.90;;;;;;4178169;28;20115;-68
2023/05/06 04:26:13;;;;;;;13.67;9.30;;;13.00;99.90;;;;;;4178380;28;20025;-68
2023/05/06 04:28:17;;;;;;;13.18;9.32;;;13.00;99.90;;;;;;4177848;28;20036;-67
2023/05/06 04:30:19;;;;;;;12.00;8.75;;;12.90;99.90;;;;;;4176602;28;20119;-67
2023/05/06 04:32:20;;;;;;;11.57;8.68;;;12.90;99.90;;;;;;4176885;28;20066;-67
2023/05/06 04:34:20;;;;;;;13.90;8.52;;;12.90;99.90;;;;;;4178236;28;20072;-67
2023/05/06 04:36:22;;;;;;;13.95;10.70;;;12.90;99.90;;;;;;4178134;28;20029;-69
2023/05/06 04:38:25;;;;;;;13.18;9.73;;;12.90;99.90;;;;;;4178473;28;20040;-67
2023/05/06 04:40:27;;;;;;;12.20;9.13;;;12.80;99.90;;;;;;4176887;28;20446;-68
2023/05/06 04:42:27;;;;;;;10.30;8.13;;;12.90;99.90;;;;;;4178100;28;20368;-67
2023/05/06 04:44:28;;;;;;;11.23;8.75;;;12.90;99.90;;;;;;4177908;28;20039;-67
2023/05/06 04:46:29;;;;;;;11.57;8.95;;;12.80;99.90;;;;;;4176916;28;20037;-67
2023/05/06 04:48:29;;;;;;;12.18;8.85;;;12.80;99.90;;;;;;4177796;28;20036;-67
2023/05/06 04:50:31;;;;;;;11.27;8.13;;;12.80;99.90;;;;;;4178010;28;20033;-66
2023/05/06 04:52:31;;;;;;;11.98;8.98;;;12.80;99.90;;;;;;4176371;28;20029;-67
2023/05/06 04:54:32;;;;;;;11.60;8.82;;;12.80;99.90;;;;;;4176615;28;20040;-67
2023/05/06 04:56:32;;;;;;;10.80;8.52;;;12.80;99.90;;;;;;4177421;28;20453;-67
2023/05/06 04:58:33;;;;;;;10.10;7.65;;;12.80;99.90;;;;;;4176914;28;20484;-67
2023/05/06 05:00:34;;;;;;;11.43;8.73;;;12.90;99.90;;;;;;4175928;28;20391;-67
2023/05/06 05:02:35;;;;;;;11.70;8.80;;;12.80;99.90;;;;;;4176777;28;20041;-67
2023/05/06 05:04:35;;;;;;;14.48;9.73;;;12.90;99.90;;;;;;4175385;28;20037;-67
2023/05/06 05:06:36;;;;;;;13.23;9.95;;;12.90;99.90;;;;;;4177385;28;20040;-67
2023/05/06 05:08:36;;;;;;;12.43;9.18;;;12.90;99.90;;;;;;4176871;28;20484;-67
2023/05/06 05:10:41;;;;;;;12.63;9.07;;;12.90;99.90;;;;;;4175844;28;20411;-67
2023/05/06 05:12:41;;;;;;;12.63;9.82;;;12.90;99.90;;;;;;4176444;28;20033;-67
2023/05/06 05:14:42;;;;;;;11.23;8.93;;;13.00;99.90;;;;;;4177676;28;20069;-67
2023/05/06 05:16:42;;;;;;;12.88;9.82;;;13.00;99.90;;;;;;4171902;28;20060;-67
2023/05/06 05:18:43;;;;;;;13.27;9.48;;;13.10;99.90;;;;;;4175740;28;20036;-67
2023/05/06 05:20:43;;;;;;;14.07;10.40;;;13.10;99.90;;;;;;4175914;28;21295;-67
2023/05/06 05:22:44;;;;;;;13.45;9.70;;;13.10;99.90;;;;;;4174139;28;20033;-67
2023/05/06 05:24:45;;;;;;;14.73;10.80;;;13.20;99.90;;;;;;4177172;28;20078;-67
2023/05/06 05:26:46;;;;;;;15.52;11.27;;;13.30;99.90;;;;;;4174152;28;20036;-67
2023/05/06 05:28:46;;;;;;;16.08;11.40;;;13.30;99.90;;;;;;4175915;28;20488;-67
2023/05/06 05:30:47;;;;;;;15.90;11.70;;;13.40;99.90;;;;;;4174272;28;20115;-66
2023/05/06 05:32:47;;;;;;;15.23;10.63;;;13.40;99.90;;;;;;4175774;28;20086;-67
2023/05/06 05:34:48;;;;;;;13.73;10.60;;;13.40;99.90;;;;;;4176136;28;20039;-67
2023/05/06 05:36:49;;;;;;;14.25;10.73;;;13.50;99.90;;;;;;4174208;28;20075;-67
2023/05/06 05:38:49;;;;;;;15.23;11.35;;;13.50;99.90;;;;;;4177336;28;20104;-67
2023/05/06 05:40:50;;;;;;;15.40;10.60;;;13.60;99.90;;;;;;4174997;28;20487;-67
2023/05/06 05:42:51;;;;;;;13.23;9.60;;;13.60;99.90;;;;;;4174804;28;20045;-68
2023/05/06 05:44:52;;;;;;;13.25;9.82;;;13.60;99.90;;;;;;4177283;28;20455;-67
2023/05/06 05:46:53;;;;;;;15.23;11.30;;;13.70;99.90;;;;;;4173887;28;20033;-66
2023/05/06 05:48:53;;;;;;;15.60;11.25;;;13.70;99.90;;;;;;4176421;28;20025;-67
2023/05/06 05:50:54;;;;;;;16.70;11.75;;;13.80;99.90;;;;;;4174267;28;20043;-69
2023/05/06 05:52:55;;;;;;;17.10;12.25;;;13.80;99.90;;;;;;4175401;28;20483;-69
2023/05/06 05:54:55;;;;;;;18.55;12.65;;;13.80;99.90;;;;;;4173607;28;20032;-68
2023/05/06 05:56:56;;;;;;;17.42;12.15;;;13.90;99.90;;;;;;4175237;28;20400;-68
2023/05/06 05:58:57;;;;;;;17.15;11.95;;;13.90;99.90;;;;;;4170675;28;20071;-67
2023/05/06 06:00:57;;;;;;;16.80;11.00;;;14.00;99.90;;;;;;4174210;28;20058;-68
2023/05/06 06:02:58;;;;;;;15.60;11.43;;;14.00;99.90;;;;;;4175574;28;20029;-67
2023/05/06 06:04:59;;;;;;;16.88;11.93;;;14.00;99.90;;;;;;4176480;28;20051;-67
2023/05/06 06:07:02;;;;;;;17.42;12.50;;;14.00;99.90;;;;;;4175372;28;20091;-67
2023/05/06 06:09:03;;;;;;;14.88;11.18;;;13.90;99.90;;;;;;4174858;28;20495;-67
2023/05/06 06:11:04;;;;;;;17.02;11.80;;;13.90;99.90;;;;;;4175110;28;20104;-67
2023/05/06 06:13:05;;;;;;;15.38;11.07;;;14.00;99.90;;;;;;4176459;28;20059;-67
2023/05/06 06:15:06;;;;;;;15.75;11.20;;;14.00;99.90;;;;;;4175291;28;20029;-68
2023/05/06 06:17:07;;;;;;;13.68;10.55;;;14.00;99.90;;;;;;4175020;28;20048;-67
2023/05/06 06:19:07;;;;;;;16.95;12.35;;;14.10;99.90;;;;;;4174742;28;20426;-67
2023/05/06 06:21:08;;;;;;;18.85;13.10;;;14.30;99.90;;;;;;4174795;28;20040;-67
2023/05/06 06:23:09;;;;;;;22.05;13.65;;;14.40;99.90;;;;;;4164906;28;20048;-66
2023/05/06 06:25:10;;;;;;;16.98;12.73;;;14.60;99.90;;;;;;4175788;28;20052;-68
2023/05/06 06:27:11;;;;;;;13.98;10.35;;;14.90;99.90;;;;;;4176140;28;20488;-68
2023/05/06 06:29:11;;;;;;;13.80;10.93;;;15.20;99.90;;;;;;4169775;28;20037;-67
2023/05/06 06:31:12;;;;;;;14.90;10.48;;;15.50;99.90;;;;;;4175299;28;20056;-68
2023/05/06 06:33:12;;;;;;;11.55;9.38;;;15.80;99.90;;;;;;4175084;28;20040;-67
2023/05/06 06:35:13;;;;;;;13.80;9.88;;;16.20;99.90;;;;;;4173892;28;20033;-67
2023/05/06 06:37:14;;;;;;;11.35;9.00;;;16.50;99.90;;;;;;4173939;28;20056;-67
2023/05/06 06:39:15;;;;;;;10.23;7.95;;;16.90;99.90;;;;;;4175558;28;20257;-67
2023/05/06 06:41:15;;;;;;;13.57;9.48;;;17.30;99.90;;;;;;4174252;28;20391;-67
2023/05/06 06:43:18;;;;;;;11.63;9.02;;;17.60;99.90;;;;;;4173571;28;20718;-67
2023/05/06 06:45:19;;;;;;;10.63;7.75;;;17.90;99.90;;;;;;4174267;28;20044;-67
2023/05/06 06:47:19;;;;;;;10.82;8.90;;;18.20;99.90;;;;;;4175646;28;20549;-67
2023/05/06 06:49:20;;;;;;;10.88;8.77;;;18.60;99.90;;;;;;4175048;28;20052;-67
2023/05/06 06:51:21;;;;;;;11.18;8.63;;;18.80;99.90;;;;;;4174841;28;20047;-67
2023/05/06 06:53:21;;;;;;;9.32;8.02;;;19.00;99.90;;;;;;4176431;28;20547;-67
2023/05/06 06:55:22;;;;;;;9.55;7.20;;;19.20;99.90;;;;;;4175430;28;20033;-67
2023/05/06 06:57:23;;;;;;;8.18;6.80;;;19.40;99.90;;;;;;4176739;28;20078;-67
2023/05/06 06:59:23;;;;;;;9.88;7.20;;;19.60;99.90;;;;;;4173264;28;20029;-67
2023/05/06 07:01:24;;;;;;;11.23;7.93;;;19.70;99.90;;;;;;4174965;28;20383;-67
2023/05/06 07:03:25;;;;;;;8.65;6.75;;;19.60;99.90;;;;;;4173922;28;20219;-67
2023/05/06 07:05:28;;;;;;;8.88;6.22;;;19.70;99.90;;;;;;4174877;28;20024;-67
2023/05/06 07:07:28;;;;;;;7.95;5.88;;;19.80;99.90;;;;;;4175962;28;20033;-68
2023/05/06 07:09:29;;;;;;;7.70;6.20;;;19.80;99.90;;;;;;4175645;28;20348;-68
2023/05/06 07:11:30;;;;;;;7.57;5.63;;;19.80;99.90;;;;;;4175413;28;20139;-67
2023/05/06 07:13:30;;;;;;;7.45;5.85;;;19.90;99.90;;;;;;4176076;28;20045;-67
2023/05/06 07:15:31;;;;;;;8.65;5.75;;;19.90;99.90;;;;;;4172974;28;20056;-68
2023/05/06 07:17:32;;;;;;;9.00;6.32;;;20.00;99.90;;;;;;4176433;28;20052;-67
2023/05/06 07:19:33;;;;;;;5.47;4.70;;;19.90;99.90;;;;;;4175365;28;20021;-68
2023/05/06 07:21:33;;;;;;;7.13;4.60;;;19.90;99.90;;;;;;4174663;28;20036;-68
2023/05/06 07:23:34;;;;;;;6.30;4.90;;;20.00;99.90;;;;;;4176174;28;20369;-68
2023/05/06 07:25:34;;;;;;;7.25;5.35;;;20.00;99.90;;;;;;4175275;28;20033;-68
2023/05/06 07:27:35;;;;;;;7.18;5.05;;;19.90;99.90;;;;;;4176296;28;20033;-68
2023/05/06 07:29:36;;;;;;;6.13;4.43;;;19.80;99.90;;;;;;4175186;28;20048;-68
2023/05/06 07:31:37;;;;;;;6.88;4.75;;;19.80;99.90;;;;;;4172210;28;20068;-67
2023/05/06 07:33:37;;;;;;;7.55;4.82;;;19.80;99.90;;;;;;4172795;28;20041;-67
2023/05/06 07:35:38;;;;;;;7.22;5.32;;;19.90;99.90;;;;;;4172352;28;20506;-67
2023/05/06 07:37:38;;;;;;;8.73;5.07;;;19.80;99.90;;;;;;4172982;28;20072;-67
2023/05/06 07:39:39;;;;;;;5.57;4.63;;;19.70;99.90;;;;;;4175632;28;20033;-67
2023/05/06 07:41:39;;;;;;;5.85;3.92;;;19.70;99.90;;;;;;4170922;28;20063;-67
2023/05/06 07:43:40;;;;;;;6.38;4.40;;;19.70;99.90;;;;;;4175944;28;20025;-67
2023/05/06 07:45:41;;;;;;;6.72;4.18;;;19.80;99.90;;;;;;4169658;28;20472;-67
2023/05/06 07:47:42;;;;;;;7.13;4.22;;;19.70;99.90;;;;;;4175119;28;20112;-69
2023/05/06 07:49:42;;;;;;;6.32;4.70;;;19.70;99.90;;;;;;4174251;28;20052;-68
2023/05/06 07:51:43;;;;;;;6.95;4.90;;;19.80;99.90;;;;;;4174909;28;20357;-68
2023/05/06 07:53:44;;;;;;;7.15;4.97;;;19.70;99.90;;;;;;4176129;28;20032;-67
2023/05/06 07:55:44;;;;;;;7.60;4.68;;;19.70;99.90;;;;;;4177532;28;20040;-68
2023/05/06 07:57:45;;;;;;;5.82;4.13;;;19.70;99.90;;;;;;4179679;28;20033;-67
2023/05/06 07:59:50;;;;;;;6.00;4.82;;;19.70;99.90;;;;;;4177233;28;20025;-67
2023/05/06 08:01:51;;;;;;;6.18;4.78;;;19.80;99.90;;;;;;4178148;28;20035;-67
2023/05/06 08:03:51;;;;;;;6.32;4.22;;;19.80;99.90;;;;;;4179136;28;20049;-67
2023/05/06 08:05:54;;;;;;;4.97;3.95;;;19.80;99.90;;;;;;4177865;28;20452;-67
2023/05/06 08:07:54;;;;;;;6.05;3.95;;;19.80;99.90;;;;;;4177696;28;20549;-68
2023/05/06 08:09:55;;;;;;;6.25;4.13;;;19.90;99.90;;;;;;4177401;28;20033;-67
2023/05/06 08:11:55;;;;;;;5.50;4.60;;;19.90;99.90;;;;;;4175084;28;20037;-68
2023/05/06 08:13:56;;;;;;;7.97;3.78;;;19.90;99.90;;;;;;4176318;28;20056;-68
2023/05/06 08:15:57;;;;;;;5.95;4.35;;;19.90;99.90;;;;;;4176260;28;20056;-68
2023/05/06 08:17:58;;;;;;;6.13;4.35;;;20.00;99.90;;;;;;4176655;28;20055;-67
2023/05/06 08:19:59;;;;;;;6.75;4.22;;;19.90;99.90;;;;;;4175391;28;20029;-67
2023/05/06 08:21:59;;;;;;;7.28;4.72;;;19.90;99.90;;;;;;4176707;28;20086;-67
2023/05/06 08:24:00;;;;;;;6.47;4.05;;;19.90;99.90;;;;;;4175425;28;20155;-67
2023/05/06 08:26:00;;;;;;;5.95;4.10;;;19.80;99.90;;;;;;4176088;28;20037;-67
2023/05/06 08:28:01;;;;;;;7.28;4.35;;;19.80;99.90;;;;;;4176965;28;20043;-68
2023/05/06 08:30:02;;;;;;;5.35;3.92;;;19.80;99.90;;;;;;4177324;28;20095;-67
2023/05/06 08:32:02;;;;;;;6.53;4.40;;;19.80;99.90;;;;;;4175260;28;20041;-68
2023/05/06 08:34:03;;;;;;;5.97;4.25;;;19.80;99.90;;;;;;4176065;28;20118;-68
2023/05/06 08:36:04;;;;;;;7.60;4.75;;;19.80;99.90;;;;;;4175700;28;20037;-68
2023/05/06 08:38:04;;;;;;;6.80;4.43;;;19.90;99.90;;;;;;4178413;28;20090;-68
2023/05/06 08:40:18;;;;;;;6.07;4.50;;;19.90;99.90;;;;;;4176886;28;20376;-68
2023/05/06 08:42:20;;;;;;;5.70;3.95;;;19.90;99.90;;;;;;4176907;28;20048;-67
2023/05/06 08:44:23;;;;;;;6.47;3.88;;;19.90;99.90;;;;;;4178597;28;20061;-67
2023/05/06 08:46:23;;;;;;;;;;;19.90;99.90;;;;;;4173709;28;20059;-67
2023/05/06 08:48:24;;;;;;;5.30;3.67;;;19.90;99.90;;;;;;4177143;28;19909;-67
2023/05/06 08:50:25;;;;;;;5.25;3.38;;;19.90;99.90;;;;;;4175485;28;20044;-67
2023/05/06 08:52:27;;;;;;;4.55;3.17;;;19.90;99.90;;;;;;4177662;28;20087;-67
2023/05/06 08:54:28;;;;;;;5.95;3.53;;;19.90;99.90;;;;;;4175897;28;20365;-67
2023/05/06 08:56:31;;;;;;;7.18;3.50;;;19.90;99.90;;;;;;4176432;28;20072;-67
2023/05/06 08:58:34;;;;;;;5.43;3.15;;;19.90;99.90;;;;;;4176880;28;20029;-70
2023/05/06 09:00:34;;;;;;;4.28;2.80;;;20.00;99.90;;;;;;4175798;28;20610;-68
2023/05/06 09:02:36;;;;;;;4.53;3.10;;;20.00;99.90;;;;;;4176982;28;20025;-67
2023/05/06 09:04:37;;;;;;;5.80;3.50;;;20.00;99.90;;;;;;4176557;28;20037;-68
2023/05/06 09:06:38;;;;;;;5.85;3.42;;;19.90;99.90;;;;;;4172403;28;20117;-67
2023/05/06 09:08:38;;;;;;;5.25;2.88;;;19.90;99.90;;;;;;4176566;28;20068;-68
2023/05/06 09:10:46;;;;;;;4.38;2.80;;;19.90;99.90;;;;;;4175613;28;20144;-68
2023/05/06 09:12:46;;;;;;;4.45;3.20;;;20.00;99.90;;;;;;4172935;28;20044;-67
2023/05/06 09:14:50;;;;;;;4.45;2.90;;;20.00;99.90;;;;;;4177432;28;20037;-67
2023/05/06 09:16:52;;;;;;;5.60;3.17;;;20.10;99.90;;;;;;4174702;28;20041;-65
2023/05/06 09:18:52;;;;;;;3.58;2.45;;;20.10;99.90;;;;;;4176709;28;20079;-66
2023/05/06 09:20:53;;;;;;;4.15;2.83;;;20.20;99.90;;;;;;4173062;28;20033;-65
2023/05/06 09:22:54;;;;;;;3.92;2.58;;;20.20;99.90;;;;;;4176757;28;20052;-67
2023/05/06 09:24:56;;;;;;;4.30;2.30;;;20.30;99.90;;;;;;4174995;28;20029;-67
2023/05/06 09:26:56;;;;;;;5.07;2.50;;;20.50;99.90;;;;;;4175362;28;20025;-67
2023/05/06 09:28:58;;;;;;;3.53;2.38;;;20.50;99.90;;;;;;4175997;28;20056;-67
2023/05/06 09:30:59;;;;;;;4.40;3.17;;;20.60;99.90;;;;;;4172149;28;20395;-67
2023/05/06 09:33:03;;;;;;;4.05;2.47;;;20.60;99.90;;;;;;4176292;28;20060;-67
2023/05/06 09:35:05;;;;;;;3.33;2.30;;;20.70;99.90;;;;;;4176417;28;20465;-68
2023/05/06 09:37:05;;;;;;;4.43;2.88;;;20.70;99.90;;;;;;4174280;28;20523;-67
2023/05/06 09:39:06;;;;;;;4.10;2.58;;;20.80;99.90;;;;;;4176269;28;20040;-68
2023/05/06 09:41:08;;;;;;;3.97;2.60;;;20.80;99.90;;;;;;4175903;28;20025;-66
2023/05/06 09:43:09;;;;;;;3.70;2.58;;;20.80;99.90;;;;;;4175841;28;20037;-66
2023/05/06 09:45:10;;;;;;;4.22;2.30;;;20.90;99.90;;;;;;4173732;28;20043;-67
2023/05/06 09:47:10;;;;;;;4.72;2.83;;;21.00;99.90;;;;;;4173885;28;20041;-67
2023/05/06 09:49:13;;;;;;;4.43;2.65;;;21.00;99.90;;;;;;4175228;28;20029;-67
2023/05/06 09:51:15;;;;;;;3.70;2.58;;;21.10;99.90;;;;;;4173024;28;20096;-68
2023/05/06 09:53:17;;;;;;;4.90;3.40;;;21.10;99.90;;;;;;4175633;28;20048;-67
2023/05/06 09:55:19;;;;;;;6.72;3.65;;;21.10;99.90;;;;;;4172376;28;20143;-66
2023/05/06 09:57:21;;;;;;;5.65;3.38;;;21.00;99.90;;;;;;4173837;28;20071;-67
2023/05/06 09:59:23;;;;;;;4.73;2.87;;;21.00;99.90;;;;;;4175628;28;20091;-67
2023/05/06 10:01:24;;;;;;;4.70;3.00;;;21.00;99.90;;;;;;4175111;28;20264;-67
2023/05/06 10:03:26;;;;;;;5.10;2.70;;;21.00;99.90;;;;;;4176253;28;20379;-67
2023/05/06 10:05:29;;;;;;;4.22;2.72;;;21.10;99.90;;;;;;4173765;28;20056;-67
2023/05/06 10:07:30;;;;;;;3.85;2.50;;;21.10;99.90;;;;;;4174467;28;20108;-67
2023/05/06 10:09:32;;;;;;;4.47;2.40;;;21.20;99.90;;;;;;4174560;28;20106;-68
2023/05/06 10:11:33;;;;;;;3.75;2.10;;;21.20;99.90;;;;;;4174696;28;20494;-67
2023/05/06 10:13:35;;;;;;;3.05;1.92;;;21.20;99.90;;;;;;4173133;28;20037;-67
2023/05/06 10:15:37;;;;;;;;;;;21.30;99.90;;;;;;4175393;28;20033;-67
2023/05/06 10:17:39;;;;;;;3.25;2.10;;;21.30;99.90;;;;;;4175461;28;19920;-67
2023/05/06 10:19:44;;;;;;;4.15;2.42;;;21.30;99.90;;;;;;4174407;28;20384;-67
2023/05/06 10:21:52;;;;;;;3.95;2.45;;;21.30;99.90;;;;;;4174578;28;20036;-69
2023/05/06 10:24:05;;;;;;;3.78;2.28;;;21.30;99.90;;;;;;4176068;28;20117;-67
2023/05/06 10:26:10;;;;;;;2.50;2.10;;;21.40;99.90;;;;;;4172198;28;20037;-67
2023/05/06 10:28:11;;;;;;;3.50;2.25;;;21.50;99.90;;;;;;4175659;28;20108;-68
2023/05/06 10:30:17;;;;;;;7.38;2.80;;;21.50;99.90;;;;;;4173671;28;20115;-67